sensor_id;sensor_type;location;lat;lon;timestamp;P1;durP1;ratioP1;P2;durP2;ratioP2
21089;SDS011;10703;51.020;6.128;2023-05-29T00:00:37;11.80;;;7.77;;
21089;SDS011;10703;51.020;6.128;2023-05-29T00:03:04;9.33;;;7.93;;
21089;SDS011;10703;51.020;6.128;2023-05-29T00:05:31;12.67;;;7.50;;
21089;SDS011;10703;51.020;6.128;2023-05-29T00:07:58;14.37;;;7.50;;
21089;SDS011;10703;51.020;6.128;2023-05-29T00:10:24;11.63;;;8.00;;
21089;SDS011;10703;51.020;6.128;2023-05-29T00:12:51;9.03;;;7.90;;
21089;SDS011;10703;51.020;6.128;2023-05-29T00:15:18;9.87;;;7.70;;
21089;SDS011;10703;51.020;6.128;2023-05-29T00:17:44;13.70;;;7.50;;
21089;SDS011;10703;51.020;6.128;2023-05-29T00:20:11;10.40;;;7.17;;
21089;SDS011;10703;51.020;6.128;2023-05-29T00:22:38;10.20;;;8.07;;
21089;SDS011;10703;51.020;6.128;2023-05-29T00:25:06;16.77;;;7.57;;
21089;SDS011;10703;51.020;6.128;2023-05-29T00:27:34;13.50;;;8.23;;
21089;SDS011;10703;51.020;6.128;2023-05-29T00:30:01;11.43;;;7.33;;
21089;SDS011;10703;51.020;6.128;2023-05-29T00:32:28;11.20;;;8.73;;
21089;SDS011;10703;51.020;6.128;2023-05-29T00:34:55;8.57;;;7.70;;
21089;SDS011;10703;51.020;6.128;2023-05-29T00:37:22;8.33;;;7.47;;
21089;SDS011;10703;51.020;6.128;2023-05-29T00:39:49;11.73;;;7.90;;
21089;SDS011;10703;51.020;6.128;2023-05-29T00:42:16;11.50;;;8.27;;
21089;SDS011;10703;51.020;6.128;2023-05-29T00:44:43;8.90;;;7.60;;
21089;SDS011;10703;51.020;6.128;2023-05-29T00:47:09;8.87;;;7.70;;
21089;SDS011;10703;51.020;6.128;2023-05-29T00:49:36;15.53;;;8.40;;
21089;SDS011;10703;51.020;6.128;2023-05-29T00:52:04;10.27;;;8.10;;
21089;SDS011;10703;51.020;6.128;2023-05-29T00:54:35;12.10;;;8.33;;
21089;SDS011;10703;51.020;6.128;2023-05-29T00:57:03;9.63;;;7.70;;
21089;SDS011;10703;51.020;6.128;2023-05-29T00:59:32;10.13;;;7.87;;
21089;SDS011;10703;51.020;6.128;2023-05-29T01:02:00;14.13;;;9.13;;
21089;SDS011;10703;51.020;6.128;2023-05-29T01:04:29;12.67;;;8.63;;
21089;SDS011;10703;51.020;6.128;2023-05-29T01:07:00;10.77;;;8.03;;
21089;SDS011;10703;51.020;6.128;2023-05-29T01:09:28;11.43;;;8.50;;
21089;SDS011;10703;51.020;6.128;2023-05-29T01:12:13;10.83;;;8.13;;
21089;SDS011;10703;51.020;6.128;2023-05-29T01:14:55;13.13;;;8.43;;
21089;SDS011;10703;51.020;6.128;2023-05-29T01:28:47;12.27;;;8.03;;
21089;SDS011;10703;51.020;6.128;2023-05-29T01:31:17;11.87;;;8.43;;
21089;SDS011;10703;51.020;6.128;2023-05-29T01:33:56;12.57;;;8.47;;
21089;SDS011;10703;51.020;6.128;2023-05-29T01:36:25;11.93;;;8.57;;
21089;SDS011;10703;51.020;6.128;2023-05-29T01:38:53;10.10;;;8.23;;
21089;SDS011;10703;51.020;6.128;2023-05-29T01:41:23;11.00;;;8.60;;
21089;SDS011;10703;51.020;6.128;2023-05-29T01:43:50;10.70;;;8.30;;
21089;SDS011;10703;51.020;6.128;2023-05-29T01:46:18;11.47;;;8.40;;
21089;SDS011;10703;51.020;6.128;2023-05-29T01:48:46;9.83;;;8.90;;
21089;SDS011;10703;51.020;6.128;2023-05-29T01:51:13;14.33;;;9.30;;
21089;SDS011;10703;51.020;6.128;2023-05-29T01:53:40;10.57;;;9.20;;
21089;SDS011;10703;51.020;6.128;2023-05-29T01:56:08;9.80;;;8.80;;
21089;SDS011;10703;51.020;6.128;2023-05-29T01:58:37;12.03;;;9.07;;
21089;SDS011;10703;51.020;6.128;2023-05-29T02:01:05;12.60;;;9.30;;
21089;SDS011;10703;51.020;6.128;2023-05-29T02:03:33;11.30;;;9.40;;
21089;SDS011;10703;51.020;6.128;2023-05-29T02:06:00;12.60;;;9.53;;
21089;SDS011;10703;51.020;6.128;2023-05-29T02:08:27;11.57;;;9.73;;
21089;SDS011;10703;51.020;6.128;2023-05-29T02:10:54;13.67;;;9.53;;
21089;SDS011;10703;51.020;6.128;2023-05-29T02:13:21;13.60;;;10.03;;
21089;SDS011;10703;51.020;6.128;2023-05-29T02:15:47;13.97;;;9.40;;
21089;SDS011;10703;51.020;6.128;2023-05-29T02:18:15;15.93;;;9.80;;
21089;SDS011;10703;51.020;6.128;2023-05-29T02:20:43;14.67;;;10.13;;
21089;SDS011;10703;51.020;6.128;2023-05-29T02:23:10;14.57;;;10.30;;
21089;SDS011;10703;51.020;6.128;2023-05-29T02:25:36;16.73;;;10.20;;
21089;SDS011;10703;51.020;6.128;2023-05-29T02:28:03;15.13;;;10.07;;
21089;SDS011;10703;51.020;6.128;2023-05-29T02:30:30;15.10;;;9.63;;
21089;SDS011;10703;51.020;6.128;2023-05-29T02:32:56;11.23;;;10.13;;
21089;SDS011;10703;51.020;6.128;2023-05-29T02:35:23;13.13;;;10.47;;
21089;SDS011;10703;51.020;6.128;2023-05-29T02:37:50;16.93;;;9.70;;
21089;SDS011;10703;51.020;6.128;2023-05-29T02:40:17;18.37;;;9.87;;
21089;SDS011;10703;51.020;6.128;2023-05-29T02:42:44;18.07;;;10.60;;
21089;SDS011;10703;51.020;6.128;2023-05-29T02:45:12;17.83;;;10.13;;
21089;SDS011;10703;51.020;6.128;2023-05-29T02:47:39;14.97;;;10.03;;
21089;SDS011;10703;51.020;6.128;2023-05-29T02:50:05;16.13;;;10.17;;
21089;SDS011;10703;51.020;6.128;2023-05-29T02:52:32;18.03;;;10.50;;
21089;SDS011;10703;51.020;6.128;2023-05-29T02:54:59;14.23;;;10.47;;
21089;SDS011;10703;51.020;6.128;2023-05-29T02:57:26;13.00;;;10.40;;
21089;SDS011;10703;51.020;6.128;2023-05-29T02:59:52;16.90;;;10.17;;
21089;SDS011;10703;51.020;6.128;2023-05-29T03:02:19;15.23;;;9.70;;
21089;SDS011;10703;51.020;6.128;2023-05-29T03:04:46;18.83;;;9.43;;
21089;SDS011;10703;51.020;6.128;2023-05-29T03:07:16;15.03;;;10.67;;
21089;SDS011;10703;51.020;6.128;2023-05-29T03:09:42;15.03;;;9.10;;
21089;SDS011;10703;51.020;6.128;2023-05-29T03:12:09;17.57;;;11.50;;
21089;SDS011;10703;51.020;6.128;2023-05-29T03:14:37;15.20;;;9.40;;
21089;SDS011;10703;51.020;6.128;2023-05-29T03:17:04;16.90;;;10.03;;
21089;SDS011;10703;51.020;6.128;2023-05-29T03:19:33;21.30;;;10.67;;
21089;SDS011;10703;51.020;6.128;2023-05-29T03:21:59;20.73;;;10.63;;
21089;SDS011;10703;51.020;6.128;2023-05-29T03:24:26;22.17;;;10.50;;
21089;SDS011;10703;51.020;6.128;2023-05-29T03:26:53;17.50;;;10.00;;
21089;SDS011;10703;51.020;6.128;2023-05-29T03:29:20;16.20;;;9.60;;
21089;SDS011;10703;51.020;6.128;2023-05-29T03:31:47;12.77;;;9.03;;
21089;SDS011;10703;51.020;6.128;2023-05-29T03:34:14;18.37;;;9.60;;
21089;SDS011;10703;51.020;6.128;2023-05-29T03:36:40;18.37;;;9.70;;
21089;SDS011;10703;51.020;6.128;2023-05-29T03:39:07;16.13;;;9.77;;
21089;SDS011;10703;51.020;6.128;2023-05-29T03:41:34;21.57;;;9.63;;
21089;SDS011;10703;51.020;6.128;2023-05-29T03:44:00;19.27;;;9.70;;
21089;SDS011;10703;51.020;6.128;2023-05-29T03:46:27;14.90;;;9.37;;
21089;SDS011;10703;51.020;6.128;2023-05-29T03:48:54;19.87;;;9.70;;
21089;SDS011;10703;51.020;6.128;2023-05-29T03:51:20;15.13;;;8.77;;
21089;SDS011;10703;51.020;6.128;2023-05-29T03:53:47;19.57;;;9.43;;
21089;SDS011;10703;51.020;6.128;2023-05-29T03:56:14;18.37;;;8.90;;
21089;SDS011;10703;51.020;6.128;2023-05-29T03:58:41;15.00;;;9.00;;
21089;SDS011;10703;51.020;6.128;2023-05-29T04:01:07;23.43;;;8.80;;
21089;SDS011;10703;51.020;6.128;2023-05-29T04:03:35;15.50;;;8.30;;
21089;SDS011;10703;51.020;6.128;2023-05-29T04:06:02;10.93;;;8.77;;
21089;SDS011;10703;51.020;6.128;2023-05-29T04:08:29;22.27;;;8.53;;
21089;SDS011;10703;51.020;6.128;2023-05-29T04:10:55;15.07;;;8.33;;
21089;SDS011;10703;51.020;6.128;2023-05-29T04:13:22;15.83;;;8.33;;
21089;SDS011;10703;51.020;6.128;2023-05-29T04:15:49;17.50;;;8.73;;
21089;SDS011;10703;51.020;6.128;2023-05-29T04:18:19;14.97;;;7.90;;
21089;SDS011;10703;51.020;6.128;2023-05-29T04:20:46;13.83;;;7.47;;
21089;SDS011;10703;51.020;6.128;2023-05-29T04:23:13;17.17;;;8.60;;
21089;SDS011;10703;51.020;6.128;2023-05-29T04:25:40;12.97;;;7.90;;
21089;SDS011;10703;51.020;6.128;2023-05-29T04:28:07;15.60;;;9.33;;
21089;SDS011;10703;51.020;6.128;2023-05-29T04:30:33;14.03;;;8.10;;
21089;SDS011;10703;51.020;6.128;2023-05-29T04:33:00;22.40;;;8.63;;
21089;SDS011;10703;51.020;6.128;2023-05-29T04:35:27;18.40;;;8.67;;
21089;SDS011;10703;51.020;6.128;2023-05-29T04:37:54;14.73;;;8.57;;
21089;SDS011;10703;51.020;6.128;2023-05-29T04:40:22;17.13;;;8.30;;
21089;SDS011;10703;51.020;6.128;2023-05-29T04:42:48;17.43;;;8.20;;
21089;SDS011;10703;51.020;6.128;2023-05-29T04:45:19;15.10;;;7.47;;
21089;SDS011;10703;51.020;6.128;2023-05-29T04:47:46;18.23;;;8.50;;
21089;SDS011;10703;51.020;6.128;2023-05-29T04:50:13;16.07;;;8.03;;
21089;SDS011;10703;51.020;6.128;2023-05-29T04:52:42;13.77;;;7.87;;
21089;SDS011;10703;51.020;6.128;2023-05-29T04:55:10;19.17;;;8.17;;
21089;SDS011;10703;51.020;6.128;2023-05-29T04:57:37;16.63;;;8.50;;
21089;SDS011;10703;51.020;6.128;2023-05-29T05:00:03;21.37;;;8.13;;
21089;SDS011;10703;51.020;6.128;2023-05-29T05:02:43;17.37;;;8.17;;
21089;SDS011;10703;51.020;6.128;2023-05-29T05:05:10;19.43;;;7.90;;
21089;SDS011;10703;51.020;6.128;2023-05-29T05:07:37;22.03;;;8.33;;
21089;SDS011;10703;51.020;6.128;2023-05-29T05:10:04;19.87;;;8.23;;
21089;SDS011;10703;51.020;6.128;2023-05-29T05:12:31;16.13;;;7.90;;
21089;SDS011;10703;51.020;6.128;2023-05-29T05:14:57;16.60;;;8.00;;
21089;SDS011;10703;51.020;6.128;2023-05-29T05:17:24;17.93;;;7.93;;
21089;SDS011;10703;51.020;6.128;2023-05-29T05:19:51;17.63;;;7.37;;
21089;SDS011;10703;51.020;6.128;2023-05-29T05:22:19;20.43;;;8.23;;
21089;SDS011;10703;51.020;6.128;2023-05-29T05:24:46;15.10;;;7.60;;
21089;SDS011;10703;51.020;6.128;2023-05-29T05:27:13;19.40;;;7.33;;
21089;SDS011;10703;51.020;6.128;2023-05-29T05:29:40;22.97;;;8.10;;
21089;SDS011;10703;51.020;6.128;2023-05-29T05:32:06;18.97;;;7.70;;
21089;SDS011;10703;51.020;6.128;2023-05-29T05:34:33;22.13;;;8.23;;
21089;SDS011;10703;51.020;6.128;2023-05-29T05:37:00;16.47;;;7.50;;
21089;SDS011;10703;51.020;6.128;2023-05-29T05:39:28;15.33;;;7.43;;
21089;SDS011;10703;51.020;6.128;2023-05-29T05:41:55;19.60;;;8.60;;
21089;SDS011;10703;51.020;6.128;2023-05-29T05:44:21;26.20;;;8.23;;
21089;SDS011;10703;51.020;6.128;2023-05-29T05:46:48;21.13;;;7.90;;
21089;SDS011;10703;51.020;6.128;2023-05-29T05:49:14;15.57;;;7.40;;
21089;SDS011;10703;51.020;6.128;2023-05-29T05:51:41;23.07;;;7.63;;
21089;SDS011;10703;51.020;6.128;2023-05-29T05:54:08;13.13;;;7.67;;
21089;SDS011;10703;51.020;6.128;2023-05-29T05:56:35;22.90;;;8.37;;
21089;SDS011;10703;51.020;6.128;2023-05-29T05:59:02;20.67;;;7.47;;
21089;SDS011;10703;51.020;6.128;2023-05-29T06:01:28;13.40;;;7.80;;
21089;SDS011;10703;51.020;6.128;2023-05-29T06:03:55;18.23;;;7.73;;
21089;SDS011;10703;51.020;6.128;2023-05-29T06:06:21;17.63;;;7.70;;
21089;SDS011;10703;51.020;6.128;2023-05-29T06:08:48;18.13;;;7.57;;
21089;SDS011;10703;51.020;6.128;2023-05-29T06:11:15;16.10;;;7.63;;
21089;SDS011;10703;51.020;6.128;2023-05-29T06:13:41;19.27;;;7.87;;
21089;SDS011;10703;51.020;6.128;2023-05-29T06:16:08;16.63;;;7.23;;
21089;SDS011;10703;51.020;6.128;2023-05-29T06:18:35;21.07;;;7.83;;
21089;SDS011;10703;51.020;6.128;2023-05-29T06:21:01;15.20;;;7.10;;
21089;SDS011;10703;51.020;6.128;2023-05-29T06:23:29;20.40;;;6.83;;
21089;SDS011;10703;51.020;6.128;2023-05-29T06:25:55;18.63;;;7.77;;
21089;SDS011;10703;51.020;6.128;2023-05-29T06:28:22;21.20;;;7.63;;
21089;SDS011;10703;51.020;6.128;2023-05-29T06:30:49;19.23;;;8.53;;
21089;SDS011;10703;51.020;6.128;2023-05-29T06:33:15;16.10;;;6.97;;
21089;SDS011;10703;51.020;6.128;2023-05-29T06:35:42;16.50;;;7.40;;
21089;SDS011;10703;51.020;6.128;2023-05-29T06:38:09;19.63;;;7.47;;
21089;SDS011;10703;51.020;6.128;2023-05-29T06:40:35;17.47;;;6.60;;
21089;SDS011;10703;51.020;6.128;2023-05-29T06:43:02;13.93;;;6.40;;
21089;SDS011;10703;51.020;6.128;2023-05-29T06:45:29;17.47;;;6.17;;
21089;SDS011;10703;51.020;6.128;2023-05-29T06:47:55;15.32;;;4.95;;
21089;SDS011;10703;51.020;6.128;2023-05-29T06:50:22;15.43;;;6.20;;
21089;SDS011;10703;51.020;6.128;2023-05-29T06:52:49;18.17;;;6.20;;
21089;SDS011;10703;51.020;6.128;2023-05-29T06:55:15;14.13;;;5.67;;
21089;SDS011;10703;51.020;6.128;2023-05-29T06:57:42;12.70;;;5.47;;
21089;SDS011;10703;51.020;6.128;2023-05-29T07:00:09;13.27;;;5.70;;
21089;SDS011;10703;51.020;6.128;2023-05-29T07:02:37;10.27;;;5.40;;
21089;SDS011;10703;51.020;6.128;2023-05-29T07:05:04;9.43;;;5.33;;
21089;SDS011;10703;51.020;6.128;2023-05-29T07:07:31;17.27;;;5.43;;
21089;SDS011;10703;51.020;6.128;2023-05-29T07:09:58;14.52;;;4.80;;
21089;SDS011;10703;51.020;6.128;2023-05-29T07:12:24;14.30;;;5.30;;
21089;SDS011;10703;51.020;6.128;2023-05-29T07:14:51;11.48;;;4.80;;
21089;SDS011;10703;51.020;6.128;2023-05-29T07:17:18;11.90;;;4.72;;
21089;SDS011;10703;51.020;6.128;2023-05-29T07:19:45;11.65;;;4.72;;
21089;SDS011;10703;51.020;6.128;2023-05-29T07:22:12;11.90;;;5.15;;
21089;SDS011;10703;51.020;6.128;2023-05-29T07:24:39;12.93;;;4.75;;
21089;SDS011;10703;51.020;6.128;2023-05-29T07:27:06;13.93;;;5.00;;
21089;SDS011;10703;51.020;6.128;2023-05-29T07:29:33;12.27;;;4.72;;
21089;SDS011;10703;51.020;6.128;2023-05-29T07:32:00;13.35;;;5.20;;
21089;SDS011;10703;51.020;6.128;2023-05-29T07:34:26;9.48;;;4.95;;
21089;SDS011;10703;51.020;6.128;2023-05-29T07:36:57;17.90;;;5.65;;
21089;SDS011;10703;51.020;6.128;2023-05-29T07:39:26;16.10;;;5.70;;
21089;SDS011;10703;51.020;6.128;2023-05-29T07:41:53;15.77;;;5.65;;
21089;SDS011;10703;51.020;6.128;2023-05-29T07:44:19;12.93;;;4.63;;
21089;SDS011;10703;51.020;6.128;2023-05-29T07:46:46;15.05;;;5.30;;
21089;SDS011;10703;51.020;6.128;2023-05-29T07:49:13;11.73;;;4.97;;
21089;SDS011;10703;51.020;6.128;2023-05-29T07:51:40;12.93;;;4.80;;
21089;SDS011;10703;51.020;6.128;2023-05-29T07:54:07;12.38;;;4.50;;
21089;SDS011;10703;51.020;6.128;2023-05-29T07:56:34;12.65;;;4.88;;
21089;SDS011;10703;51.020;6.128;2023-05-29T07:59:00;15.07;;;5.32;;
21089;SDS011;10703;51.020;6.128;2023-05-29T08:01:27;10.30;;;5.00;;
21089;SDS011;10703;51.020;6.128;2023-05-29T08:03:55;12.90;;;5.20;;
21089;SDS011;10703;51.020;6.128;2023-05-29T08:06:22;11.60;;;4.75;;
21089;SDS011;10703;51.020;6.128;2023-05-29T08:08:49;14.73;;;5.50;;
21089;SDS011;10703;51.020;6.128;2023-05-29T08:11:18;11.75;;;5.13;;
21089;SDS011;10703;51.020;6.128;2023-05-29T08:13:45;13.05;;;4.78;;
21089;SDS011;10703;51.020;6.128;2023-05-29T08:16:12;14.43;;;4.63;;
21089;SDS011;10703;51.020;6.128;2023-05-29T08:18:40;11.93;;;5.18;;
21089;SDS011;10703;51.020;6.128;2023-05-29T08:21:07;16.98;;;5.43;;
21089;SDS011;10703;51.020;6.128;2023-05-29T08:23:35;12.18;;;5.35;;
21089;SDS011;10703;51.020;6.128;2023-05-29T08:26:02;14.45;;;4.75;;
21089;SDS011;10703;51.020;6.128;2023-05-29T08:28:31;11.93;;;5.00;;
21089;SDS011;10703;51.020;6.128;2023-05-29T08:30:58;14.10;;;4.95;;
21089;SDS011;10703;51.020;6.128;2023-05-29T08:33:24;13.57;;;5.35;;
21089;SDS011;10703;51.020;6.128;2023-05-29T08:35:51;14.27;;;5.07;;
21089;SDS011;10703;51.020;6.128;2023-05-29T08:38:18;11.32;;;4.32;;
21089;SDS011;10703;51.020;6.128;2023-05-29T08:40:47;12.65;;;5.03;;
21089;SDS011;10703;51.020;6.128;2023-05-29T08:45:42;16.20;;;4.80;;
21089;SDS011;10703;51.020;6.128;2023-05-29T08:48:11;11.07;;;4.70;;
21089;SDS011;10703;51.020;6.128;2023-05-29T08:50:43;9.95;;;4.32;;
21089;SDS011;10703;51.020;6.128;2023-05-29T08:53:12;14.00;;;4.85;;
21089;SDS011;10703;51.020;6.128;2023-05-29T08:55:40;9.25;;;4.47;;
21089;SDS011;10703;51.020;6.128;2023-05-29T08:58:07;11.52;;;4.35;;
21089;SDS011;10703;51.020;6.128;2023-05-29T09:00:36;9.98;;;4.32;;
21089;SDS011;10703;51.020;6.128;2023-05-29T09:03:02;10.45;;;4.65;;
21089;SDS011;10703;51.020;6.128;2023-05-29T09:05:29;12.82;;;4.80;;
21089;SDS011;10703;51.020;6.128;2023-05-29T09:07:56;11.18;;;4.68;;
21089;SDS011;10703;51.020;6.128;2023-05-29T09:10:23;9.32;;;4.95;;
21089;SDS011;10703;51.020;6.128;2023-05-29T09:12:51;19.25;;;4.63;;
21089;SDS011;10703;51.020;6.128;2023-05-29T09:15:21;12.57;;;4.70;;
21089;SDS011;10703;51.020;6.128;2023-05-29T09:17:53;9.68;;;4.80;;
21089;SDS011;10703;51.020;6.128;2023-05-29T09:20:22;13.75;;;4.70;;
21089;SDS011;10703;51.020;6.128;2023-05-29T09:23:08;14.57;;;5.03;;
21089;SDS011;10703;51.020;6.128;2023-05-29T09:25:39;13.63;;;5.03;;
21089;SDS011;10703;51.020;6.128;2023-05-29T09:28:09;10.73;;;4.78;;
21089;SDS011;10703;51.020;6.128;2023-05-29T09:30:39;13.52;;;5.07;;
21089;SDS011;10703;51.020;6.128;2023-05-29T09:33:08;8.18;;;4.10;;
21089;SDS011;10703;51.020;6.128;2023-05-29T09:35:37;8.65;;;4.88;;
21089;SDS011;10703;51.020;6.128;2023-05-29T09:38:15;8.02;;;4.47;;
21089;SDS011;10703;51.020;6.128;2023-05-29T09:41:03;12.15;;;5.00;;
21089;SDS011;10703;51.020;6.128;2023-05-29T09:43:31;13.20;;;5.00;;
21089;SDS011;10703;51.020;6.128;2023-05-29T09:45:58;14.13;;;5.20;;
21089;SDS011;10703;51.020;6.128;2023-05-29T09:48:28;10.30;;;4.75;;
21089;SDS011;10703;51.020;6.128;2023-05-29T09:50:55;9.07;;;4.40;;
21089;SDS011;10703;51.020;6.128;2023-05-29T09:53:24;10.52;;;4.53;;
21089;SDS011;10703;51.020;6.128;2023-05-29T09:55:52;10.80;;;4.43;;
21089;SDS011;10703;51.020;6.128;2023-05-29T09:58:21;11.35;;;4.88;;
21089;SDS011;10703;51.020;6.128;2023-05-29T10:00:49;11.60;;;4.65;;
21089;SDS011;10703;51.020;6.128;2023-05-29T10:03:17;11.88;;;4.68;;
21089;SDS011;10703;51.020;6.128;2023-05-29T10:05:46;15.00;;;4.97;;
21089;SDS011;10703;51.020;6.128;2023-05-29T10:08:17;12.52;;;5.00;;
21089;SDS011;10703;51.020;6.128;2023-05-29T10:10:56;10.75;;;4.72;;
21089;SDS011;10703;51.020;6.128;2023-05-29T10:13:31;11.50;;;4.55;;
21089;SDS011;10703;51.020;6.128;2023-05-29T10:16:03;9.18;;;4.60;;
21089;SDS011;10703;51.020;6.128;2023-05-29T10:18:32;12.25;;;4.95;;
21089;SDS011;10703;51.020;6.128;2023-05-29T10:21:04;11.52;;;5.05;;
21089;SDS011;10703;51.020;6.128;2023-05-29T10:23:33;11.35;;;4.95;;
21089;SDS011;10703;51.020;6.128;2023-05-29T10:26:21;10.75;;;4.47;;
21089;SDS011;10703;51.020;6.128;2023-05-29T10:34:44;16.52;;;5.15;;
21089;SDS011;10703;51.020;6.128;2023-05-29T10:37:35;10.90;;;4.28;;
21089;SDS011;10703;51.020;6.128;2023-05-29T10:40:09;11.10;;;4.68;;
21089;SDS011;10703;51.020;6.128;2023-05-29T10:42:42;13.45;;;4.60;;
21089;SDS011;10703;51.020;6.128;2023-05-29T10:50:42;8.93;;;4.60;;
21089;SDS011;10703;51.020;6.128;2023-05-29T10:53:09;12.88;;;4.72;;
21089;SDS011;10703;51.020;6.128;2023-05-29T10:55:40;10.60;;;4.68;;
21089;SDS011;10703;51.020;6.128;2023-05-29T10:58:07;12.57;;;4.55;;
21089;SDS011;10703;51.020;6.128;2023-05-29T11:00:47;11.32;;;4.70;;
21089;SDS011;10703;51.020;6.128;2023-05-29T11:03:15;9.90;;;4.95;;
21089;SDS011;10703;51.020;6.128;2023-05-29T11:06:04;10.27;;;4.68;;
21089;SDS011;10703;51.020;6.128;2023-05-29T11:08:47;12.10;;;4.20;;
21089;SDS011;10703;51.020;6.128;2023-05-29T11:11:29;11.02;;;4.65;;
21089;SDS011;10703;51.020;6.128;2023-05-29T11:14:00;13.40;;;4.88;;
21089;SDS011;10703;51.020;6.128;2023-05-29T11:19:01;8.63;;;3.90;;
21089;SDS011;10703;51.020;6.128;2023-05-29T11:24:32;13.32;;;4.10;;
21089;SDS011;10703;51.020;6.128;2023-05-29T11:27:02;11.15;;;4.18;;
21089;SDS011;10703;51.020;6.128;2023-05-29T11:29:32;13.82;;;4.60;;
21089;SDS011;10703;51.020;6.128;2023-05-29T11:32:05;9.73;;;4.68;;
21089;SDS011;10703;51.020;6.128;2023-05-29T11:34:34;10.13;;;4.18;;
21089;SDS011;10703;51.020;6.128;2023-05-29T11:37:05;10.80;;;4.00;;
21089;SDS011;10703;51.020;6.128;2023-05-29T11:39:35;11.35;;;4.30;;
21089;SDS011;10703;51.020;6.128;2023-05-29T11:42:02;12.02;;;4.75;;
21089;SDS011;10703;51.020;6.128;2023-05-29T11:44:32;8.95;;;4.10;;
21089;SDS011;10703;51.020;6.128;2023-05-29T11:46:59;9.32;;;4.28;;
21089;SDS011;10703;51.020;6.128;2023-05-29T11:49:28;10.57;;;4.25;;
21089;SDS011;10703;51.020;6.128;2023-05-29T11:52:18;14.35;;;4.68;;
21089;SDS011;10703;51.020;6.128;2023-05-29T11:54:48;10.60;;;3.63;;
21089;SDS011;10703;51.020;6.128;2023-05-29T11:57:19;13.48;;;4.38;;
21089;SDS011;10703;51.020;6.128;2023-05-29T11:59:46;10.18;;;4.10;;
21089;SDS011;10703;51.020;6.128;2023-05-29T12:02:15;7.00;;;3.45;;
21089;SDS011;10703;51.020;6.128;2023-05-29T12:04:42;9.43;;;4.00;;
21089;SDS011;10703;51.020;6.128;2023-05-29T12:07:17;11.50;;;4.45;;
21089;SDS011;10703;51.020;6.128;2023-05-29T12:09:44;8.77;;;3.92;;
21089;SDS011;10703;51.020;6.128;2023-05-29T12:12:11;9.23;;;4.03;;
21089;SDS011;10703;51.020;6.128;2023-05-29T12:14:38;7.45;;;4.00;;
21089;SDS011;10703;51.020;6.128;2023-05-29T12:17:04;8.05;;;3.88;;
21089;SDS011;10703;51.020;6.128;2023-05-29T12:19:31;11.23;;;4.32;;
21089;SDS011;10703;51.020;6.128;2023-05-29T12:21:58;6.40;;;3.50;;
21089;SDS011;10703;51.020;6.128;2023-05-29T12:24:25;11.00;;;3.80;;
21089;SDS011;10703;51.020;6.128;2023-05-29T12:27:05;10.73;;;4.43;;
21089;SDS011;10703;51.020;6.128;2023-05-29T12:29:33;8.43;;;4.20;;
21089;SDS011;10703;51.020;6.128;2023-05-29T12:32:00;14.20;;;4.55;;
21089;SDS011;10703;51.020;6.128;2023-05-29T12:34:27;10.18;;;3.97;;
21089;SDS011;10703;51.020;6.128;2023-05-29T12:37:09;11.65;;;4.00;;
21089;SDS011;10703;51.020;6.128;2023-05-29T12:39:40;9.65;;;3.67;;
21089;SDS011;10703;51.020;6.128;2023-05-29T12:42:06;9.50;;;4.00;;
21089;SDS011;10703;51.020;6.128;2023-05-29T12:44:34;13.00;;;4.43;;
21089;SDS011;10703;51.020;6.128;2023-05-29T12:47:01;7.57;;;3.78;;
21089;SDS011;10703;51.020;6.128;2023-05-29T12:49:28;8.07;;;3.53;;
21089;SDS011;10703;51.020;6.128;2023-05-29T12:51:56;6.50;;;3.50;;
21089;SDS011;10703;51.020;6.128;2023-05-29T12:54:33;9.20;;;3.65;;
21089;SDS011;10703;51.020;6.128;2023-05-29T12:56:59;8.63;;;4.03;;
21089;SDS011;10703;51.020;6.128;2023-05-29T12:59:27;10.07;;;4.07;;
21089;SDS011;10703;51.020;6.128;2023-05-29T13:01:53;8.25;;;3.90;;
21089;SDS011;10703;51.020;6.128;2023-05-29T13:04:20;8.38;;;3.42;;
21089;SDS011;10703;51.020;6.128;2023-05-29T13:06:47;9.70;;;3.88;;
21089;SDS011;10703;51.020;6.128;2023-05-29T13:09:14;7.03;;;3.50;;
21089;SDS011;10703;51.020;6.128;2023-05-29T13:11:41;13.15;;;3.97;;
21089;SDS011;10703;51.020;6.128;2023-05-29T13:14:08;11.13;;;4.40;;
21089;SDS011;10703;51.020;6.128;2023-05-29T13:16:34;11.38;;;3.88;;
21089;SDS011;10703;51.020;6.128;2023-05-29T13:19:02;9.73;;;3.75;;
21089;SDS011;10703;51.020;6.128;2023-05-29T13:21:28;8.13;;;4.00;;
21089;SDS011;10703;51.020;6.128;2023-05-29T13:23:55;8.45;;;3.75;;
21089;SDS011;10703;51.020;6.128;2023-05-29T13:26:22;9.05;;;3.80;;
21089;SDS011;10703;51.020;6.128;2023-05-29T13:28:48;6.82;;;3.58;;
21089;SDS011;10703;51.020;6.128;2023-05-29T13:31:16;9.65;;;3.80;;
21089;SDS011;10703;51.020;6.128;2023-05-29T13:33:44;12.65;;;4.05;;
21089;SDS011;10703;51.020;6.128;2023-05-29T13:36:10;7.93;;;4.07;;
21089;SDS011;10703;51.020;6.128;2023-05-29T13:38:37;7.45;;;3.55;;
21089;SDS011;10703;51.020;6.128;2023-05-29T13:41:03;11.68;;;4.03;;
21089;SDS011;10703;51.020;6.128;2023-05-29T13:43:30;10.80;;;4.63;;
21089;SDS011;10703;51.020;6.128;2023-05-29T13:46:10;6.05;;;3.72;;
21089;SDS011;10703;51.020;6.128;2023-05-29T13:48:37;6.80;;;3.70;;
21089;SDS011;10703;51.020;6.128;2023-05-29T13:51:03;7.95;;;3.80;;
21089;SDS011;10703;51.020;6.128;2023-05-29T13:53:30;8.73;;;3.75;;
21089;SDS011;10703;51.020;6.128;2023-05-29T13:55:57;8.27;;;4.03;;
21089;SDS011;10703;51.020;6.128;2023-05-29T13:58:23;7.00;;;3.85;;
21089;SDS011;10703;51.020;6.128;2023-05-29T14:00:50;8.40;;;3.75;;
21089;SDS011;10703;51.020;6.128;2023-05-29T14:03:16;10.77;;;3.92;;
21089;SDS011;10703;51.020;6.128;2023-05-29T14:05:45;13.10;;;3.72;;
21089;SDS011;10703;51.020;6.128;2023-05-29T14:08:11;13.35;;;4.03;;
21089;SDS011;10703;51.020;6.128;2023-05-29T14:10:38;9.73;;;3.90;;
21089;SDS011;10703;51.020;6.128;2023-05-29T14:13:04;10.00;;;3.90;;
21089;SDS011;10703;51.020;6.128;2023-05-29T14:15:31;6.78;;;3.65;;
21089;SDS011;10703;51.020;6.128;2023-05-29T14:17:58;11.02;;;3.83;;
21089;SDS011;10703;51.020;6.128;2023-05-29T14:20:25;8.82;;;3.80;;
21089;SDS011;10703;51.020;6.128;2023-05-29T14:22:52;7.80;;;4.10;;
21089;SDS011;10703;51.020;6.128;2023-05-29T14:25:18;11.30;;;3.95;;
21089;SDS011;10703;51.020;6.128;2023-05-29T14:27:45;12.60;;;4.15;;
21089;SDS011;10703;51.020;6.128;2023-05-29T14:30:12;10.13;;;3.90;;
21089;SDS011;10703;51.020;6.128;2023-05-29T14:32:38;7.45;;;3.97;;
21089;SDS011;10703;51.020;6.128;2023-05-29T14:35:07;11.13;;;3.85;;
21089;SDS011;10703;51.020;6.128;2023-05-29T14:37:34;14.27;;;4.18;;
21089;SDS011;10703;51.020;6.128;2023-05-29T14:40:01;10.25;;;4.07;;
21089;SDS011;10703;51.020;6.128;2023-05-29T14:42:28;10.00;;;4.03;;
21089;SDS011;10703;51.020;6.128;2023-05-29T14:44:55;6.57;;;3.90;;
21089;SDS011;10703;51.020;6.128;2023-05-29T14:47:22;7.82;;;3.80;;
21089;SDS011;10703;51.020;6.128;2023-05-29T14:49:48;7.38;;;3.60;;
21089;SDS011;10703;51.020;6.128;2023-05-29T14:52:15;6.70;;;3.63;;
21089;SDS011;10703;51.020;6.128;2023-05-29T14:54:42;9.70;;;3.70;;
21089;SDS011;10703;51.020;6.128;2023-05-29T14:57:08;8.23;;;3.70;;
21089;SDS011;10703;51.020;6.128;2023-05-29T14:59:35;6.93;;;3.95;;
21089;SDS011;10703;51.020;6.128;2023-05-29T15:02:02;10.70;;;3.75;;
21089;SDS011;10703;51.020;6.128;2023-05-29T15:04:29;10.15;;;4.07;;
21089;SDS011;10703;51.020;6.128;2023-05-29T15:06:55;6.93;;;3.60;;
21089;SDS011;10703;51.020;6.128;2023-05-29T15:09:31;9.40;;;3.85;;
21089;SDS011;10703;51.020;6.128;2023-05-29T15:11:58;8.95;;;4.10;;